createdAt,value
2018-07-28T00:02:15.889Z,25.20
2018-07-28T00:04:44.071Z,25.20
2018-07-28T00:07:12.248Z,25.10
2018-07-28T00:09:40.428Z,25.10
2018-07-28T00:12:08.604Z,25.10
2018-07-28T00:14:36.830Z,25.00
2018-07-28T00:17:05.103Z,25.00
2018-07-28T00:19:33.277Z,25.00
2018-07-28T00:22:01.456Z,25.00
2018-07-28T00:26:57.560Z,24.80
2018-07-28T00:29:25.738Z,24.80
2018-07-28T00:31:53.953Z,24.80
2018-07-28T00:36:50.106Z,24.70
2018-07-28T00:39:18.303Z,24.60
2018-07-28T00:41:46.458Z,24.60
2018-07-28T00:44:14.656Z,24.60
2018-07-28T00:46:42.828Z,24.60
2018-07-28T00:49:11.011Z,24.50
2018-07-28T00:51:39.178Z,24.50
2018-07-28T00:54:07.383Z,24.40
2018-07-28T00:56:35.560Z,24.40
2018-07-28T00:59:03.738Z,24.40
2018-07-28T01:01:31.927Z,24.40
2018-07-28T01:06:28.029Z,24.30
2018-07-28T01:08:56.217Z,24.20
2018-07-28T01:11:24.554Z,24.20
2018-07-28T01:13:52.724Z,24.20
2018-07-28T01:16:21.428Z,24.20
2018-07-28T01:18:49.607Z,24.10
2018-07-28T01:21:17.784Z,24.10
2018-07-28T01:23:45.958Z,24.10
2018-07-28T01:26:14.151Z,24.00
2018-07-28T01:28:42.328Z,23.90
2018-07-28T01:31:10.517Z,23.80
2018-07-28T01:36:06.718Z,23.80
2018-07-28T01:38:34.912Z,23.80
2018-07-28T01:41:03.084Z,23.70
2018-07-28T01:43:31.275Z,23.70
2018-07-28T01:48:27.384Z,23.70
2018-07-28T01:50:55.561Z,23.70
2018-07-28T01:53:23.781Z,23.70
2018-07-28T01:55:51.964Z,23.70
2018-07-28T01:58:20.187Z,23.70
2018-07-28T02:00:48.355Z,23.60
2018-07-28T02:03:16.548Z,23.60
2018-07-28T02:05:44.724Z,23.60
2018-07-28T02:08:13.031Z,23.50
2018-07-28T02:10:41.225Z,23.50
2018-07-28T02:13:09.400Z,23.50
2018-07-28T02:15:37.595Z,23.60
2018-07-28T02:18:05.784Z,23.60
2018-07-28T02:20:33.968Z,23.60
2018-07-28T02:23:02.158Z,23.50
2018-07-28T02:27:58.271Z,23.50
2018-07-28T02:30:26.444Z,23.40
2018-07-28T02:32:54.623Z,23.40
2018-07-28T02:35:22.789Z,23.50
2018-07-28T02:37:50.964Z,23.50
2018-07-28T02:40:19.138Z,23.50
2018-07-28T02:42:47.325Z,23.40
2018-07-28T02:45:15.828Z,23.50
2018-07-28T02:47:44.021Z,23.40
2018-07-28T02:50:12.251Z,23.40
2018-07-28T02:55:09.206Z,23.40
2018-07-28T02:57:37.504Z,23.40
2018-07-28T03:02:34.033Z,23.40
2018-07-28T03:05:02.251Z,23.40
2018-07-28T03:07:30.599Z,23.40
2018-07-28T03:12:26.731Z,23.40
2018-07-28T03:14:54.887Z,23.40
2018-07-28T03:17:23.067Z,23.40
2018-07-28T03:19:51.236Z,23.40
2018-07-28T03:22:19.420Z,23.50
2018-07-28T03:24:47.592Z,23.40
2018-07-28T03:27:15.765Z,23.50
2018-07-28T03:29:43.954Z,23.50
2018-07-28T03:37:08.044Z,23.40
2018-07-28T03:39:36.206Z,23.40
2018-07-28T03:42:04.384Z,23.40
2018-07-28T03:44:32.587Z,23.40
2018-07-28T03:49:28.759Z,23.40
2018-07-28T03:51:56.943Z,23.40
2018-07-28T03:54:25.126Z,23.40
2018-07-28T03:56:53.299Z,23.30
2018-07-28T03:59:22.179Z,23.30
2018-07-28T04:01:50.360Z,23.30
2018-07-28T04:04:18.617Z,23.30
2018-07-28T04:06:46.719Z,23.30
2018-07-28T04:09:14.895Z,23.30
2018-07-28T04:11:43.076Z,23.30
2018-07-28T04:14:11.286Z,23.30
2018-07-28T04:16:39.455Z,23.20
2018-07-28T04:21:35.596Z,23.20
2018-07-28T04:29:00.352Z,23.20
2018-07-28T04:31:28.637Z,23.20
2018-07-28T04:33:56.803Z,23.20
2018-07-28T04:36:24.980Z,23.10
2018-07-28T04:38:53.151Z,23.10
2018-07-28T04:41:21.326Z,23.10
2018-07-28T04:43:49.497Z,23.10
2018-07-28T04:46:17.669Z,23.10
2018-07-28T04:48:45.928Z,23.10
2018-07-28T04:51:14.117Z,23.00
2018-07-28T04:53:42.326Z,23.00
2018-07-28T04:56:10.514Z,23.00
2018-07-28T04:58:38.684Z,22.90
2018-07-28T05:01:06.863Z,22.90
2018-07-28T05:03:35.136Z,22.80
2018-07-28T05:06:03.307Z,22.80
2018-07-28T05:08:31.507Z,22.80
2018-07-28T05:13:27.612Z,22.80
2018-07-28T05:15:56.068Z,22.80
2018-07-28T05:18:24.207Z,22.80
2018-07-28T05:20:52.412Z,22.90
2018-07-28T05:23:20.787Z,22.80
2018-07-28T05:25:48.972Z,22.90
2018-07-28T05:28:17.156Z,22.90
2018-07-28T05:30:45.332Z,22.90
2018-07-28T05:33:13.520Z,22.90
2018-07-28T05:35:41.686Z,23.00
2018-07-28T05:38:09.883Z,23.00
2018-07-28T05:40:38.039Z,23.00
2018-07-28T05:43:06.280Z,23.00
2018-07-28T05:45:34.471Z,23.00
2018-07-28T05:48:02.661Z,23.00
2018-07-28T05:50:30.842Z,23.10
2018-07-28T05:52:59.048Z,23.00
2018-07-28T05:57:55.172Z,23.10
2018-07-28T06:02:51.417Z,23.10
2018-07-28T06:05:19.535Z,23.10
2018-07-28T06:07:47.719Z,23.10
2018-07-28T06:10:15.890Z,23.10
2018-07-28T06:12:44.064Z,23.10
2018-07-28T06:15:12.280Z,23.10
2018-07-28T06:17:40.471Z,23.20
2018-07-28T06:20:09.097Z,23.20
2018-07-28T06:22:37.644Z,23.20
2018-07-28T06:25:06.524Z,23.20
2018-07-28T06:30:02.723Z,23.20
2018-07-28T06:32:30.894Z,23.20
2018-07-28T06:34:59.356Z,23.20
2018-07-28T06:37:27.523Z,23.20
2018-07-28T06:39:55.707Z,23.20
2018-07-28T06:42:23.883Z,23.20
2018-07-28T06:44:52.143Z,23.20
2018-07-28T06:47:21.051Z,23.20
2018-07-28T06:49:49.227Z,23.20
2018-07-28T06:52:17.432Z,23.20
2018-07-28T06:54:45.627Z,23.20
2018-07-28T07:02:09.727Z,23.20
2018-07-28T07:09:33.786Z,23.20
2018-07-28T07:12:02.081Z,23.20
2018-07-28T07:14:30.272Z,23.20
2018-07-28T07:16:58.514Z,23.20
2018-07-28T07:19:26.699Z,23.20
2018-07-28T07:21:54.895Z,23.20
2018-07-28T07:24:23.072Z,23.20
2018-07-28T07:26:51.277Z,23.20
2018-07-28T07:29:19.455Z,23.20
2018-07-28T07:31:47.655Z,23.20
2018-07-28T07:34:15.888Z,23.20
2018-07-28T07:36:44.095Z,23.30
2018-07-28T07:39:12.304Z,23.30
2018-07-28T07:41:40.531Z,23.30
2018-07-28T07:44:08.691Z,23.30
2018-07-28T07:46:36.870Z,23.30
2018-07-28T07:49:05.032Z,23.30
2018-07-28T07:51:33.222Z,23.30
2018-07-28T07:54:01.562Z,23.30
2018-07-28T07:56:29.581Z,23.40
2018-07-28T07:58:57.755Z,23.40
2018-07-28T08:01:25.951Z,23.40
2018-07-28T08:03:54.220Z,23.40
2018-07-28T08:06:22.448Z,23.40
2018-07-28T08:08:51.715Z,23.40
2018-07-28T08:11:20.732Z,23.40
2018-07-28T08:13:48.921Z,23.40
2018-07-28T08:16:17.738Z,23.40
2018-07-28T08:18:45.931Z,23.50
2018-07-28T08:21:14.112Z,23.40
2018-07-28T08:24:44.716Z,23.40
2018-07-28T08:27:12.916Z,23.40
2018-07-28T08:29:41.168Z,23.40
2018-07-28T08:32:09.320Z,23.40
2018-07-28T08:34:37.491Z,23.40
2018-07-28T08:37:05.683Z,23.40
2018-07-28T08:39:33.882Z,23.40
2018-07-28T08:42:02.053Z,23.50
2018-07-28T08:44:30.237Z,23.50
2018-07-28T08:46:58.410Z,23.60
2018-07-28T08:49:26.663Z,23.60
2018-07-28T08:51:54.788Z,23.60
2018-07-28T08:54:22.946Z,23.70
2018-07-28T08:56:51.101Z,23.80
2018-07-28T08:59:19.285Z,23.90
2018-07-28T09:01:47.461Z,24.00
2018-07-28T09:04:15.818Z,24.00
2018-07-28T09:06:44.007Z,24.10
2018-07-28T09:09:12.206Z,24.10
2018-07-28T09:11:40.374Z,24.20
2018-07-28T09:14:09.288Z,24.20
2018-07-28T09:16:37.524Z,24.30
2018-07-28T09:19:05.760Z,24.30
2018-07-28T09:21:33.931Z,24.40
2018-07-28T09:24:02.127Z,24.60
2018-07-28T09:26:30.492Z,24.60
2018-07-28T09:28:58.671Z,24.70
2018-07-28T09:31:26.840Z,24.80
2018-07-28T09:33:55.011Z,24.90
2018-07-28T09:36:23.216Z,25.00
2018-07-28T09:38:51.412Z,25.00
2018-07-28T09:43:48.020Z,25.10
2018-07-28T09:46:16.236Z,25.20
2018-07-28T09:48:44.416Z,25.20
2018-07-28T09:51:13.047Z,25.30
2018-07-28T09:53:41.232Z,25.40
2018-07-28T09:56:09.423Z,25.50
2018-07-28T09:58:37.583Z,25.60
2018-07-28T10:01:11.107Z,25.70
2018-07-28T10:03:39.267Z,25.70
2018-07-28T10:06:07.614Z,25.70
2018-07-28T10:08:35.756Z,25.70
2018-07-28T10:11:03.931Z,25.70
2018-07-28T10:13:32.123Z,25.80
2018-07-28T10:16:00.299Z,25.80
2018-07-28T10:18:28.476Z,25.80
2018-07-28T10:20:56.684Z,25.90
2018-07-28T10:23:24.846Z,26.00
2018-07-28T10:25:53.162Z,26.00
2018-07-28T10:30:49.267Z,26.00
2018-07-28T10:33:17.556Z,26.10
2018-07-28T10:35:45.724Z,26.10
2018-07-28T10:38:14.196Z,26.20
2018-07-28T10:40:42.359Z,26.30
2018-07-28T10:43:10.536Z,26.40
2018-07-28T10:45:38.809Z,26.40
2018-07-28T10:48:07.036Z,26.50
2018-07-28T10:53:03.150Z,26.60
2018-07-28T10:55:31.370Z,26.70
2018-07-28T11:02:55.488Z,26.90
2018-07-28T11:05:23.703Z,26.80
2018-07-28T11:07:51.963Z,26.80
2018-07-28T11:10:20.238Z,26.60
2018-07-28T11:12:48.407Z,26.30
2018-07-28T11:15:16.563Z,26.30
2018-07-28T11:17:44.763Z,26.10
2018-07-28T11:20:12.936Z,26.10
2018-07-28T11:22:41.122Z,26.10
2018-07-28T11:25:09.545Z,26.20
2018-07-28T11:27:38.325Z,26.30
2018-07-28T11:32:46.544Z,26.40
2018-07-28T11:38:05.112Z,26.50
2018-07-28T11:45:40.575Z,26.60
2018-07-28T11:48:09.200Z,26.60
2018-07-28T11:50:37.366Z,26.70
2018-07-28T11:53:05.575Z,26.70
2018-07-28T11:55:33.767Z,26.70
2018-07-28T11:58:02.038Z,26.60
2018-07-28T12:02:58.147Z,26.40
2018-07-28T12:05:26.390Z,26.40
2018-07-28T12:07:54.528Z,26.20
2018-07-28T12:10:22.741Z,26.10
2018-07-28T12:12:50.981Z,26.10
2018-07-28T12:15:19.168Z,25.90
2018-07-28T12:20:15.356Z,26.00
2018-07-28T12:22:44.500Z,26.10
2018-07-28T12:25:12.683Z,26.10
2018-07-28T12:30:10.403Z,26.20
2018-07-28T12:32:38.574Z,26.20
2018-07-28T12:35:07.177Z,26.30
2018-07-28T12:37:35.519Z,26.40
2018-07-28T12:40:03.874Z,26.30
2018-07-28T12:45:00.068Z,26.40
2018-07-28T12:47:28.254Z,26.50
2018-07-28T12:49:56.419Z,26.50
2018-07-28T12:52:24.615Z,26.60
2018-07-28T12:54:52.832Z,26.50
2018-07-28T12:57:21.070Z,26.60
2018-07-28T12:59:49.248Z,26.60
2018-07-28T13:02:17.475Z,26.60
2018-07-28T13:04:45.662Z,26.60
2018-07-28T13:07:13.849Z,26.70
2018-07-28T13:09:42.032Z,26.60
2018-07-28T13:12:10.224Z,26.40
2018-07-28T13:17:06.428Z,26.40
2018-07-28T13:22:02.541Z,26.40
2018-07-28T13:24:30.756Z,26.40
2018-07-28T13:26:58.919Z,26.40
2018-07-28T13:29:27.247Z,26.40
2018-07-28T13:34:23.392Z,26.50
2018-07-28T13:36:51.567Z,26.60
2018-07-28T13:39:19.772Z,26.50
2018-07-28T13:41:47.940Z,26.50
2018-07-28T13:44:16.211Z,26.50
2018-07-28T13:46:44.384Z,26.50
2018-07-28T13:49:12.587Z,26.60
2018-07-28T13:51:40.785Z,26.50
2018-07-28T13:54:09.002Z,26.50
2018-07-28T13:56:37.285Z,26.70
2018-07-28T13:59:05.759Z,26.70
2018-07-28T14:01:34.099Z,26.80
2018-07-28T14:06:30.223Z,26.80
2018-07-28T14:08:58.536Z,26.80
2018-07-28T14:11:26.713Z,26.70
2018-07-28T14:13:54.896Z,26.60
2018-07-28T14:16:23.108Z,26.70
2018-07-28T14:18:51.389Z,26.80
2018-07-28T14:21:19.520Z,26.90
2018-07-28T14:23:47.714Z,26.90
2018-07-28T14:26:15.976Z,26.90
2018-07-28T14:28:44.190Z,26.80
2018-07-28T14:31:12.409Z,26.90
2018-07-28T14:33:40.636Z,26.80
2018-07-28T14:36:08.851Z,27.00
2018-07-28T14:46:00.904Z,27.10
2018-07-28T14:48:29.204Z,27.20
2018-07-28T14:55:53.411Z,27.20
2018-07-28T14:58:22.659Z,27.30
2018-07-28T15:00:50.856Z,27.40
2018-07-28T15:03:19.043Z,27.40
2018-07-28T15:05:47.224Z,27.50
2018-07-28T15:10:43.383Z,27.70
2018-07-28T15:13:11.554Z,27.70
2018-07-28T15:15:39.736Z,27.80
2018-07-28T15:18:07.917Z,27.80
2018-07-28T15:20:36.080Z,27.80
2018-07-28T15:23:04.284Z,27.80
2018-07-28T15:25:32.483Z,27.90
2018-07-28T15:28:00.668Z,27.70
2018-07-28T15:30:28.851Z,27.80
2018-07-28T15:35:25.944Z,27.80
2018-07-28T15:37:54.151Z,27.80
2018-07-28T15:40:23.030Z,27.80
2018-07-28T15:42:51.222Z,27.80
2018-07-28T15:45:19.403Z,27.90
2018-07-28T15:47:47.624Z,28.00
2018-07-28T15:50:15.890Z,28.00
2018-07-28T15:52:44.104Z,27.70
2018-07-28T15:55:12.299Z,27.80
2018-07-28T15:57:40.479Z,27.90
2018-07-28T16:00:08.669Z,27.90
2018-07-28T16:05:04.984Z,28.00
2018-07-28T16:07:33.165Z,28.10
2018-07-28T16:10:01.404Z,28.30
2018-07-28T16:12:29.580Z,28.30
2018-07-28T16:14:57.756Z,28.20
2018-07-28T16:17:25.944Z,28.10
2018-07-28T16:19:54.140Z,28.00
2018-07-28T16:22:22.315Z,28.10
2018-07-28T16:24:50.487Z,28.20
2018-07-28T16:27:18.660Z,28.30
2018-07-28T16:29:46.832Z,28.10
2018-07-28T16:32:15.033Z,28.10
2018-07-28T16:37:11.156Z,28.10
2018-07-28T16:39:39.332Z,28.10
2018-07-28T16:42:07.510Z,28.20
2018-07-28T16:44:35.722Z,28.10
2018-07-28T16:49:31.795Z,27.80
2018-07-28T16:51:59.966Z,27.90
2018-07-28T16:54:28.180Z,27.90
2018-07-28T16:59:24.313Z,27.70
2018-07-28T17:01:52.539Z,27.80
2018-07-28T17:04:20.692Z,27.70
2018-07-28T17:06:48.883Z,27.50
2018-07-28T17:09:17.068Z,27.50
2018-07-28T17:11:45.265Z,27.40
2018-07-28T17:14:13.460Z,27.30
2018-07-28T17:21:37.542Z,27.30
2018-07-28T17:24:05.916Z,27.10
2018-07-28T17:26:34.242Z,27.00
2018-07-28T17:29:03.127Z,27.00
2018-07-28T17:33:59.304Z,26.70
2018-07-28T17:36:27.574Z,26.70
2018-07-28T17:38:55.801Z,26.80
2018-07-28T17:41:23.991Z,26.40
2018-07-28T17:46:20.292Z,26.10
2018-07-28T17:48:48.500Z,26.10
2018-07-28T17:53:44.648Z,26.10
2018-07-28T17:56:12.940Z,25.90
2018-07-28T17:58:41.185Z,26.00
2018-07-28T18:01:09.391Z,25.90
2018-07-28T18:03:37.600Z,25.70
2018-07-28T18:06:07.358Z,25.70
2018-07-28T18:11:03.502Z,25.30
2018-07-28T18:18:27.611Z,25.30
2018-07-28T18:23:23.775Z,25.20
2018-07-28T18:25:52.015Z,25.00
2018-07-28T18:28:20.178Z,24.90
2018-07-28T18:30:48.457Z,24.70
2018-07-28T18:35:44.552Z,24.70
2018-07-28T18:38:12.740Z,24.70
2018-07-28T18:40:40.932Z,24.50
2018-07-28T18:43:09.203Z,24.50
2018-07-28T18:45:37.442Z,24.40
2018-07-28T18:48:05.803Z,24.30
2018-07-28T18:50:34.596Z,24.10
2018-07-28T18:53:02.796Z,24.00
2018-07-28T18:55:30.971Z,23.90
2018-07-28T18:57:59.169Z,23.70
2018-07-28T19:00:27.394Z,23.60
2018-07-28T19:02:55.589Z,23.60
2018-07-28T19:05:23.796Z,23.60
2018-07-28T19:07:51.979Z,23.30
2018-07-28T19:10:20.325Z,23.20
2018-07-28T19:12:53.739Z,23.30
2018-07-28T19:15:21.971Z,23.30
2018-07-28T19:17:55.699Z,23.30
2018-07-28T19:20:23.975Z,23.20
2018-07-28T19:22:57.725Z,23.10
2018-07-28T19:27:59.168Z,23.10
2018-07-28T19:30:27.367Z,22.90
2018-07-28T19:35:26.421Z,22.90
2018-07-28T19:37:54.621Z,22.90
2018-07-28T19:40:22.844Z,22.90
2018-07-28T19:42:52.099Z,22.80
2018-07-28T19:45:20.741Z,22.80
2018-07-28T19:47:48.910Z,22.80
2018-07-28T19:50:17.100Z,22.80
2018-07-28T19:52:45.283Z,22.70
2018-07-28T19:55:13.451Z,22.70
2018-07-28T19:57:41.645Z,22.60
2018-07-28T20:00:10.141Z,22.50
2018-07-28T20:02:38.358Z,22.40
2018-07-28T20:05:06.936Z,22.50
2018-07-28T20:07:35.232Z,22.40
2018-07-28T20:10:03.516Z,22.40
2018-07-28T20:12:31.706Z,22.30
2018-07-28T20:14:59.887Z,22.20
2018-07-28T20:17:28.080Z,22.20
2018-07-28T20:22:24.456Z,22.00
2018-07-28T20:24:52.647Z,22.00
2018-07-28T20:27:20.833Z,22.00
2018-07-28T20:29:49.065Z,21.90
2018-07-28T20:34:45.183Z,21.70
2018-07-28T20:37:13.382Z,21.70
2018-07-28T20:42:09.480Z,21.50
2018-07-28T20:44:37.759Z,21.40
2018-07-28T20:47:07.708Z,21.40
2018-07-28T20:49:36.191Z,21.40
2018-07-28T20:54:32.384Z,21.40
2018-07-28T20:57:00.595Z,21.30
2018-07-28T21:01:56.796Z,21.20
2018-07-28T21:04:25.048Z,21.20
2018-07-28T21:06:53.211Z,21.10
2018-07-28T21:09:21.392Z,21.10
2018-07-28T21:11:49.580Z,21.00
2018-07-28T21:14:17.743Z,20.90
2018-07-28T21:16:45.959Z,20.80
2018-07-28T21:19:14.211Z,20.80
2018-07-28T21:21:42.427Z,20.80
2018-07-28T21:24:10.556Z,20.80
2018-07-28T21:26:38.732Z,20.70
2018-07-28T21:29:06.963Z,20.70
2018-07-28T21:31:35.101Z,20.70
2018-07-28T21:34:03.315Z,20.70
2018-07-28T21:38:59.979Z,20.50
2018-07-28T21:41:28.179Z,20.60
2018-07-28T21:43:56.388Z,20.50
2018-07-28T21:46:24.589Z,20.50
2018-07-28T21:51:20.673Z,20.50
2018-07-28T21:53:48.855Z,20.30
2018-07-28T21:56:21.388Z,20.30
2018-07-28T21:58:49.681Z,20.20
2018-07-28T22:01:17.861Z,20.20
2018-07-28T22:03:46.056Z,20.30
2018-07-28T22:06:14.372Z,20.20
2018-07-28T22:11:10.981Z,20.20
2018-07-28T22:13:39.150Z,20.10
2018-07-28T22:16:07.371Z,20.10
2018-07-28T22:18:35.551Z,20.10
2018-07-28T22:21:03.732Z,20.00
2018-07-28T22:23:31.904Z,20.00
2018-07-28T22:26:00.527Z,19.90
2018-07-28T22:28:28.707Z,19.90
2018-07-28T22:30:56.875Z,19.90
2018-07-28T22:33:25.133Z,19.90
2018-07-28T22:35:53.305Z,19.80
2018-07-28T22:38:21.483Z,19.80
2018-07-28T22:40:49.659Z,19.80
2018-07-28T22:43:17.927Z,19.80
2018-07-28T22:45:46.091Z,19.80
2018-07-28T22:48:14.252Z,19.80
2018-07-28T22:50:42.433Z,19.70
2018-07-28T22:53:10.630Z,19.70
2018-07-28T22:55:38.883Z,19.60
2018-07-28T22:58:07.116Z,19.60
2018-07-28T23:00:35.276Z,19.60
2018-07-28T23:03:03.448Z,19.60
2018-07-28T23:05:31.618Z,19.60
2018-07-28T23:07:59.768Z,19.60
2018-07-28T23:10:27.943Z,19.60
2018-07-28T23:12:56.095Z,19.60
2018-07-28T23:15:25.236Z,19.60
2018-07-28T23:17:53.417Z,19.50
2018-07-28T23:20:21.579Z,19.50
2018-07-28T23:22:49.755Z,19.50
2018-07-28T23:25:17.931Z,19.50
2018-07-28T23:27:46.135Z,19.50
2018-07-28T23:30:14.292Z,19.40
2018-07-28T23:32:42.467Z,19.40
2018-07-28T23:35:10.653Z,19.40
2018-07-28T23:37:38.836Z,19.40
2018-07-28T23:42:35.249Z,19.40
2018-07-28T23:45:03.559Z,19.30
2018-07-28T23:49:59.712Z,19.40
2018-07-28T23:54:55.852Z,19.30
2018-07-28T23:59:52.837Z,19.20
